createdAt,value
2017-08-27T00:00:03.166Z,0
2017-08-27T00:01:13.436Z,0
2017-08-27T00:02:23.704Z,0
2017-08-27T00:03:33.973Z,0
2017-08-27T00:04:43.604Z,0
2017-08-27T00:05:53.866Z,0
2017-08-27T00:07:03.811Z,0
2017-08-27T00:08:14.084Z,0
2017-08-27T00:09:24.030Z,0
2017-08-27T00:10:34.294Z,0
2017-08-27T00:11:44.562Z,0
2017-08-27T00:12:54.830Z,0
2017-08-27T00:14:05.098Z,0
2017-08-27T00:15:15.362Z,0
2017-08-27T00:16:25.626Z,0
2017-08-27T00:17:35.917Z,0
2017-08-27T00:18:46.182Z,0
2017-08-27T00:19:56.125Z,0
2017-08-27T00:21:05.426Z,0
2017-08-27T00:22:15.369Z,0
2017-08-27T00:23:27.834Z,0
2017-08-27T00:24:37.779Z,0
2017-08-27T00:25:47.723Z,0
2017-08-27T00:26:57.985Z,0
2017-08-27T00:28:07.610Z,0
2017-08-27T00:29:17.893Z,0
2017-08-27T00:30:27.837Z,0
2017-08-27T00:31:37.779Z,0
2017-08-27T00:32:47.082Z,0
2017-08-27T00:33:57.354Z,0
2017-08-27T00:35:07.622Z,0
2017-08-27T00:36:17.888Z,0
2017-08-27T00:37:27.831Z,0
2017-08-27T00:38:37.784Z,0
2017-08-27T00:39:48.049Z,0
2017-08-27T00:40:58.309Z,0
2017-08-27T00:42:08.262Z,0
2017-08-27T00:43:17.563Z,0
2017-08-27T00:44:27.506Z,0
2017-08-27T00:45:37.770Z,0
2017-08-27T00:46:48.031Z,0
2017-08-27T00:47:57.980Z,0
2017-08-27T00:49:08.243Z,0
2017-08-27T00:50:18.517Z,0
2017-08-27T00:51:28.138Z,0
2017-08-27T00:52:38.404Z,0
2017-08-27T00:53:48.667Z,0
2017-08-27T00:54:58.611Z,0
2017-08-27T00:56:08.553Z,0
2017-08-27T00:57:18.822Z,0
2017-08-27T00:58:29.083Z,0
2017-08-27T00:59:39.027Z,0
2017-08-27T01:00:49.288Z,0
2017-08-27T01:01:59.552Z,0
2017-08-27T01:03:09.838Z,0
2017-08-27T01:04:19.784Z,0
2017-08-27T01:05:29.725Z,0
2017-08-27T01:06:39.991Z,0
2017-08-27T01:07:50.258Z,0
2017-08-27T01:09:00.200Z,0
2017-08-27T01:10:10.463Z,0
2017-08-27T01:11:20.728Z,0
2017-08-27T01:12:30.998Z,0
2017-08-27T01:13:41.263Z,0
2017-08-27T01:14:51.532Z,0
2017-08-27T01:16:01.793Z,0
2017-08-27T01:17:12.058Z,0
2017-08-27T01:18:22.323Z,0
2017-08-27T01:19:32.279Z,0
2017-08-27T01:20:42.219Z,0
2017-08-27T01:21:52.486Z,0
2017-08-27T01:23:02.746Z,0
2017-08-27T01:24:13.015Z,0
2017-08-27T01:25:23.291Z,0
2017-08-27T01:26:33.554Z,0
2017-08-27T01:27:43.815Z,0
2017-08-27T01:28:53.757Z,0
2017-08-27T01:30:03.696Z,0
2017-08-27T01:31:13.651Z,0
2017-08-27T01:32:23.593Z,0
2017-08-27T01:33:33.539Z,0
2017-08-27T01:34:43.489Z,0
2017-08-27T01:35:53.758Z,0
2017-08-27T01:37:03.387Z,0
2017-08-27T01:38:13.006Z,0
2017-08-27T01:39:23.270Z,0
2017-08-27T01:40:33.539Z,0
2017-08-27T01:41:43.801Z,0
2017-08-27T01:42:53.742Z,0
2017-08-27T01:44:03.712Z,0
2017-08-27T01:45:13.975Z,0
2017-08-27T01:46:24.243Z,0
2017-08-27T01:47:34.533Z,0
2017-08-27T01:48:44.799Z,0
2017-08-27T01:49:55.064Z,0
2017-08-27T01:51:05.007Z,0
2017-08-27T01:52:15.276Z,0
2017-08-27T01:53:24.898Z,0
2017-08-27T01:54:34.840Z,0
2017-08-27T01:55:45.106Z,0
2017-08-27T01:56:55.371Z,0
2017-08-27T01:58:05.313Z,0
2017-08-27T01:59:15.578Z,0
2017-08-27T02:00:25.518Z,0
2017-08-27T02:01:35.789Z,0
2017-08-27T02:02:50.822Z,0
2017-08-27T02:04:00.443Z,0
2017-08-27T02:05:10.712Z,0
2017-08-27T02:06:20.653Z,0
2017-08-27T02:07:29.629Z,0
2017-08-27T02:08:40.141Z,0
2017-08-27T02:09:50.419Z,0
2017-08-27T02:11:00.684Z,0
2017-08-27T02:12:09.983Z,0
2017-08-27T02:13:20.245Z,0
2017-08-27T02:14:33.536Z,0
2017-08-27T02:15:43.482Z,0
2017-08-27T02:16:53.747Z,0
2017-08-27T02:18:03.691Z,0
2017-08-27T02:19:13.958Z,0
2017-08-27T02:20:24.221Z,0
2017-08-27T02:21:34.162Z,0
2017-08-27T02:22:44.425Z,0
2017-08-27T02:23:54.685Z,0
2017-08-27T02:25:04.626Z,0
2017-08-27T02:26:15.138Z,0
2017-08-27T02:27:25.410Z,0
2017-08-27T02:28:35.679Z,0
2017-08-27T02:29:45.940Z,0
2017-08-27T02:30:55.912Z,0
2017-08-27T02:32:06.178Z,0
2017-08-27T02:33:16.473Z,0
2017-08-27T02:34:26.739Z,0
2017-08-27T02:35:36.679Z,0
2017-08-27T02:36:46.956Z,0
2017-08-27T02:37:56.900Z,0
2017-08-27T02:39:06.844Z,0
2017-08-27T02:40:17.121Z,0
2017-08-27T02:41:27.388Z,0
2017-08-27T02:42:37.653Z,0
2017-08-27T02:43:47.596Z,0
2017-08-27T02:44:57.546Z,0
2017-08-27T02:46:07.869Z,0
2017-08-27T02:47:18.157Z,0
2017-08-27T02:48:28.428Z,0
2017-08-27T02:49:38.689Z,0
2017-08-27T02:50:48.638Z,0
2017-08-27T02:51:58.910Z,0
2017-08-27T02:53:08.533Z,0
2017-08-27T02:54:18.811Z,0
2017-08-27T02:55:28.762Z,0
2017-08-27T02:56:39.024Z,0
2017-08-27T02:57:49.289Z,0
2017-08-27T02:58:59.229Z,0
2017-08-27T03:00:09.174Z,0
2017-08-27T03:01:19.113Z,0
2017-08-27T03:02:29.381Z,0
2017-08-27T03:03:39.646Z,0
2017-08-27T03:04:49.588Z,0
2017-08-27T03:05:59.529Z,0
2017-08-27T03:07:09.791Z,0
2017-08-27T03:08:19.413Z,0
2017-08-27T03:09:29.675Z,0
2017-08-27T03:10:39.944Z,0
2017-08-27T03:11:50.202Z,0
2017-08-27T03:13:00.467Z,0
2017-08-27T03:14:10.094Z,0
2017-08-27T03:15:20.363Z,0
2017-08-27T03:16:30.628Z,4
2017-08-27T03:17:40.568Z,4
2017-08-27T03:18:50.831Z,0
2017-08-27T03:20:01.095Z,4
2017-08-27T03:21:11.358Z,4
2017-08-27T03:22:21.302Z,4
2017-08-27T03:23:31.562Z,4
2017-08-27T03:24:41.506Z,8
2017-08-27T03:25:51.457Z,8
2017-08-27T03:27:01.407Z,4
2017-08-27T03:28:11.670Z,12
2017-08-27T03:29:21.611Z,12
2017-08-27T03:30:31.563Z,12
2017-08-27T03:31:41.512Z,12
2017-08-27T03:32:51.776Z,16
2017-08-27T03:34:02.037Z,20
2017-08-27T03:35:12.302Z,20
2017-08-27T03:36:22.564Z,24
2017-08-27T03:37:32.505Z,28
2017-08-27T03:38:42.446Z,32
2017-08-27T03:39:52.393Z,36
2017-08-27T03:41:02.336Z,44
2017-08-27T03:42:12.596Z,48
2017-08-27T03:43:22.860Z,52
2017-08-27T03:44:33.123Z,64
2017-08-27T03:45:43.068Z,68
2017-08-27T03:46:53.331Z,76
2017-08-27T03:48:03.595Z,88
2017-08-27T03:49:13.860Z,100
2017-08-27T03:50:24.123Z,112
2017-08-27T03:51:34.389Z,120
2017-08-27T03:52:44.657Z,132
2017-08-27T03:53:54.279Z,144
2017-08-27T03:55:04.231Z,156
2017-08-27T03:56:14.175Z,168
2017-08-27T03:57:24.438Z,180
2017-08-27T03:58:34.710Z,192
2017-08-27T03:59:44.977Z,208
2017-08-27T04:00:55.240Z,228
2017-08-27T04:02:05.512Z,240
2017-08-27T04:03:15.139Z,260
2017-08-27T04:04:25.409Z,276
2017-08-27T04:05:35.353Z,296
2017-08-27T04:06:45.617Z,316
2017-08-27T04:07:55.237Z,336
2017-08-27T04:09:05.512Z,356
2017-08-27T04:10:15.786Z,376
2017-08-27T04:11:25.727Z,396
2017-08-27T04:12:35.993Z,420
2017-08-27T04:13:46.255Z,440
2017-08-27T04:14:56.198Z,460
2017-08-27T04:16:06.475Z,484
2017-08-27T04:17:16.753Z,508
2017-08-27T04:18:27.018Z,528
2017-08-27T04:19:37.288Z,552
2017-08-27T04:20:47.552Z,576
2017-08-27T04:21:57.824Z,596
2017-08-27T04:23:08.091Z,620
2017-08-27T04:24:18.034Z,644
2017-08-27T04:25:27.979Z,664
2017-08-27T04:26:38.244Z,684
2017-08-27T04:27:48.511Z,712
2017-08-27T04:28:58.780Z,744
2017-08-27T04:30:08.721Z,764
2017-08-27T04:31:18.690Z,792
2017-08-27T04:32:28.957Z,816
2017-08-27T04:33:39.221Z,860
2017-08-27T04:34:49.487Z,908
2017-08-27T04:35:59.758Z,944
2017-08-27T04:37:10.020Z,976
2017-08-27T04:38:20.286Z,992
2017-08-27T04:39:29.585Z,1024
2017-08-27T04:40:39.853Z,1060
2017-08-27T04:41:49.794Z,1100
2017-08-27T04:43:00.069Z,1140
2017-08-27T04:44:10.336Z,1172
2017-08-27T04:45:20.603Z,1200
2017-08-27T04:46:30.545Z,1224
2017-08-27T04:47:40.810Z,1272
2017-08-27T04:48:50.441Z,1336
2017-08-27T04:50:00.702Z,1384
2017-08-27T04:51:10.649Z,1428
2017-08-27T04:52:20.923Z,1464
2017-08-27T04:53:30.869Z,1492
2017-08-27T04:54:40.490Z,1524
2017-08-27T04:55:50.436Z,1536
2017-08-27T04:57:00.059Z,1568
2017-08-27T04:58:09.689Z,1596
2017-08-27T04:59:19.950Z,1608
2017-08-27T05:00:29.900Z,1636
2017-08-27T05:01:40.183Z,1676
2017-08-27T05:02:50.448Z,1680
2017-08-27T05:04:00.393Z,1692
2017-08-27T05:05:10.337Z,1724
2017-08-27T05:06:20.307Z,1828
2017-08-27T05:07:30.577Z,1940
2017-08-27T05:08:40.843Z,2004
2017-08-27T05:09:50.797Z,2020
2017-08-27T05:11:01.071Z,2028
2017-08-27T05:12:10.702Z,2028
2017-08-27T05:13:20.974Z,2004
2017-08-27T05:14:31.241Z,1972
2017-08-27T05:15:41.196Z,1948
2017-08-27T05:16:51.467Z,1944
2017-08-27T05:18:01.436Z,1956
2017-08-27T05:19:11.707Z,1980
2017-08-27T05:20:21.657Z,2000
2017-08-27T05:21:31.933Z,2024
2017-08-27T05:22:42.197Z,2048
2017-08-27T05:23:52.471Z,2068
2017-08-27T05:25:02.759Z,2088
2017-08-27T05:26:13.033Z,2108
2017-08-27T05:27:23.301Z,2128
2017-08-27T05:28:33.570Z,2152
2017-08-27T05:29:43.834Z,2172
2017-08-27T05:30:54.100Z,2192
2017-08-27T05:32:04.402Z,2216
2017-08-27T05:33:14.360Z,2236
2017-08-27T05:34:24.630Z,2256
2017-08-27T05:35:34.578Z,2276
2017-08-27T05:36:44.854Z,2300
2017-08-27T05:37:54.802Z,2320
2017-08-27T05:39:05.074Z,2336
2017-08-27T05:40:15.026Z,2356
2017-08-27T05:41:25.287Z,2376
2017-08-27T05:42:35.240Z,2392
2017-08-27T05:43:45.183Z,2412
2017-08-27T05:44:55.448Z,2428
2017-08-27T05:46:05.395Z,2448
2017-08-27T05:47:15.666Z,2464
2017-08-27T05:48:25.937Z,2484
2017-08-27T05:49:36.202Z,2504
2017-08-27T05:50:46.467Z,2520
2017-08-27T05:51:56.731Z,2536
2017-08-27T05:53:06.995Z,2556
2017-08-27T05:54:17.258Z,2572
2017-08-27T05:55:27.525Z,2584
2017-08-27T05:56:37.790Z,2600
2017-08-27T05:57:47.735Z,2612
2017-08-27T05:58:57.999Z,2628
2017-08-27T06:00:08.267Z,2644
2017-08-27T06:01:18.532Z,2656
2017-08-27T06:02:28.481Z,2672
2017-08-27T06:03:38.753Z,2684
2017-08-27T06:04:48.390Z,2696
2017-08-27T06:05:58.018Z,2712
2017-08-27T06:07:08.285Z,2724
2017-08-27T06:08:18.549Z,2740
2017-08-27T06:09:28.493Z,2752
2017-08-27T06:10:38.759Z,2772
2017-08-27T06:11:49.033Z,2780
2017-08-27T06:12:59.300Z,2792
2017-08-27T06:14:09.565Z,2804
2017-08-27T06:15:19.831Z,2816
2017-08-27T06:16:30.098Z,2828
2017-08-27T06:17:40.370Z,2840
2017-08-27T06:18:49.679Z,2852
2017-08-27T06:19:59.620Z,2864
2017-08-27T06:21:09.889Z,2872
2017-08-27T06:22:19.513Z,2888
2017-08-27T06:23:29.784Z,2896
2017-08-27T06:24:40.052Z,2908
2017-08-27T06:25:50.316Z,2916
2017-08-27T06:27:00.257Z,2928
2017-08-27T06:28:09.882Z,2936
2017-08-27T06:29:19.841Z,2944
2017-08-27T06:30:30.104Z,2952
2017-08-27T06:31:40.051Z,2956
2017-08-27T06:32:50.316Z,2964
2017-08-27T06:34:00.262Z,2972
2017-08-27T06:35:10.529Z,2980
2017-08-27T06:36:20.475Z,2988
2017-08-27T06:37:30.429Z,2992
2017-08-27T06:38:40.697Z,3000
2017-08-27T06:39:50.977Z,3012
2017-08-27T06:41:00.920Z,3020
2017-08-27T06:42:10.543Z,3028
2017-08-27T06:43:20.519Z,3040
2017-08-27T06:44:30.783Z,3048
2017-08-27T06:45:40.732Z,3056
2017-08-27T06:46:50.675Z,3064
2017-08-27T06:48:00.944Z,3076
2017-08-27T06:49:11.218Z,3084
2017-08-27T06:50:21.484Z,3088
2017-08-27T06:51:31.451Z,3100
2017-08-27T06:52:41.718Z,3108
2017-08-27T06:53:51.665Z,3116
2017-08-27T06:55:01.937Z,3128
2017-08-27T06:56:12.206Z,3132
2017-08-27T06:57:22.473Z,3140
2017-08-27T06:58:32.737Z,3144
2017-08-27T06:59:43.011Z,3152
2017-08-27T07:00:53.277Z,3160
2017-08-27T07:02:03.542Z,3168
2017-08-27T07:03:13.487Z,3176
2017-08-27T07:04:23.753Z,3184
2017-08-27T07:05:33.702Z,3188
2017-08-27T07:06:43.968Z,3196
2017-08-27T07:07:53.914Z,3208
2017-08-27T07:09:03.864Z,3212
2017-08-27T07:10:13.808Z,3216
2017-08-27T07:11:24.086Z,3228
2017-08-27T07:12:34.030Z,3236
2017-08-27T07:13:44.313Z,3256
2017-08-27T07:14:54.268Z,3276
2017-08-27T07:16:04.541Z,3276
2017-08-27T07:17:14.488Z,3272
2017-08-27T07:18:24.760Z,3272
2017-08-27T07:19:34.387Z,3280
2017-08-27T07:20:44.338Z,3280
2017-08-27T07:21:54.614Z,3284
2017-08-27T07:23:04.560Z,3308
2017-08-27T07:24:14.827Z,3336
2017-08-27T07:25:25.094Z,3344
2017-08-27T07:26:35.366Z,3332
2017-08-27T07:27:44.994Z,3336
2017-08-27T07:28:54.939Z,3336
2017-08-27T07:30:05.212Z,3348
2017-08-27T07:31:15.480Z,3360
2017-08-27T07:32:25.105Z,3376
2017-08-27T07:33:35.368Z,3388
2017-08-27T07:34:45.316Z,3408
2017-08-27T07:35:55.264Z,3420
2017-08-27T07:37:05.531Z,3436
2017-08-27T07:38:15.154Z,3464
2017-08-27T07:39:25.100Z,3476
2017-08-27T07:40:35.366Z,3464
2017-08-27T07:41:45.643Z,3468
2017-08-27T07:42:55.914Z,3480
2017-08-27T07:44:06.188Z,3492
2017-08-27T07:45:15.819Z,3492
2017-08-27T07:46:25.765Z,3508
2017-08-27T07:47:35.710Z,3516
2017-08-27T07:48:45.982Z,3536
2017-08-27T07:49:56.248Z,3552
2017-08-27T07:51:06.196Z,3572
2017-08-27T07:52:16.153Z,3568
2017-08-27T07:53:26.439Z,3576
2017-08-27T07:54:36.065Z,3596
2017-08-27T07:55:46.368Z,3600
2017-08-27T07:56:56.639Z,3628
2017-08-27T07:58:06.594Z,3664
2017-08-27T07:59:16.861Z,3688
2017-08-27T08:00:26.813Z,3672
2017-08-27T08:01:36.762Z,3628
2017-08-27T08:02:46.707Z,3612
2017-08-27T08:03:56.661Z,3624
2017-08-27T08:05:06.931Z,3640
2017-08-27T08:06:16.879Z,3644
2017-08-27T08:07:26.825Z,3644
2017-08-27T08:08:37.107Z,3656
2017-08-27T08:09:47.375Z,3676
2017-08-27T08:10:57.322Z,3688
2017-08-27T08:12:06.950Z,3692
2017-08-27T08:13:16.902Z,3708
2017-08-27T08:14:26.533Z,3708
2017-08-27T08:15:36.805Z,3716
2017-08-27T08:16:47.076Z,3724
2017-08-27T08:17:57.034Z,3736
2017-08-27T08:19:06.980Z,3748
2017-08-27T08:20:16.931Z,3760
2017-08-27T08:21:27.199Z,3772
2017-08-27T08:22:37.466Z,3784
2017-08-27T08:23:47.419Z,3800
2017-08-27T08:24:57.366Z,3808
2017-08-27T08:26:07.634Z,3820
2017-08-27T08:27:17.926Z,3836
2017-08-27T08:28:27.552Z,3844
2017-08-27T08:29:37.820Z,3860
2017-08-27T08:30:47.770Z,3872
2017-08-27T08:31:58.040Z,3888
2017-08-27T08:33:08.310Z,3900
2017-08-27T08:34:18.576Z,3916
2017-08-27T08:35:28.857Z,3928
2017-08-27T08:36:38.486Z,3940
2017-08-27T08:37:48.432Z,3956
2017-08-27T08:38:58.710Z,3968
2017-08-27T08:40:08.657Z,3984
2017-08-27T08:41:18.927Z,4000
2017-08-27T08:42:28.874Z,4012
2017-08-27T08:43:38.823Z,4028
2017-08-27T08:44:48.772Z,4036
2017-08-27T08:45:58.724Z,4052
2017-08-27T08:47:08.674Z,4068
2017-08-27T08:48:18.625Z,4084
2017-08-27T08:49:28.900Z,4096
2017-08-27T08:50:38.844Z,4116
2017-08-27T08:51:48.797Z,4132
2017-08-27T08:52:58.747Z,4152
2017-08-27T08:54:08.696Z,4168
2017-08-27T08:55:18.991Z,4184
2017-08-27T08:56:29.260Z,4204
2017-08-27T08:57:39.218Z,4228
2017-08-27T08:58:49.486Z,4244
2017-08-27T08:59:59.441Z,4264
2017-08-27T09:01:09.068Z,4280
2017-08-27T09:02:19.347Z,4296
2017-08-27T09:03:29.614Z,4316
2017-08-27T09:04:39.567Z,4336
2017-08-27T09:05:49.198Z,4356
2017-08-27T09:06:59.468Z,4376
2017-08-27T09:08:09.740Z,4396
2017-08-27T09:09:20.013Z,4412
2017-08-27T09:10:30.282Z,4428
2017-08-27T09:11:40.551Z,4448
2017-08-27T09:12:50.829Z,4468
2017-08-27T09:14:00.785Z,4484
2017-08-27T09:15:11.054Z,4508
2017-08-27T09:16:21.323Z,4524
2017-08-27T09:17:31.592Z,4540
2017-08-27T09:18:41.545Z,4556
2017-08-27T09:19:51.812Z,4572
2017-08-27T09:21:01.771Z,4592
2017-08-27T09:22:11.398Z,4612
2017-08-27T09:23:21.672Z,4628
2017-08-27T09:24:31.659Z,4652
2017-08-27T09:25:41.608Z,4668
2017-08-27T09:26:50.913Z,4688
2017-08-27T09:28:01.183Z,4708
2017-08-27T09:29:11.132Z,4732
2017-08-27T09:30:21.404Z,4752
2017-08-27T09:31:31.704Z,4776
2017-08-27T09:32:41.655Z,4800
2017-08-27T09:33:51.603Z,4816
2017-08-27T09:35:01.877Z,4836
2017-08-27T09:36:12.150Z,4860
2017-08-27T09:37:22.417Z,4880
2017-08-27T09:38:32.727Z,4908
2017-08-27T09:39:42.681Z,4928
2017-08-27T09:40:52.638Z,4952
2017-08-27T09:42:02.906Z,4976
2017-08-27T09:43:12.538Z,5000
2017-08-27T09:44:22.166Z,5020
2017-08-27T09:45:31.838Z,5048
2017-08-27T09:46:41.789Z,5068
2017-08-27T09:47:51.752Z,5092
2017-08-27T09:49:02.019Z,5116
2017-08-27T09:50:11.970Z,5136
2017-08-27T09:51:22.239Z,5164
2017-08-27T09:52:32.517Z,5180
2017-08-27T09:53:42.790Z,5208
2017-08-27T09:54:52.750Z,5228
2017-08-27T09:56:02.699Z,5244
2017-08-27T09:57:12.971Z,5264
2017-08-27T09:58:22.920Z,5292
2017-08-27T09:59:33.193Z,5316
2017-08-27T10:00:42.820Z,5336
2017-08-27T10:01:53.093Z,5356
2017-08-27T10:03:02.720Z,5376
2017-08-27T10:04:12.999Z,5400
2017-08-27T10:05:23.271Z,5428
2017-08-27T10:06:33.542Z,5452
2017-08-27T10:07:43.844Z,5476
2017-08-27T10:08:53.793Z,5504
2017-08-27T10:10:03.741Z,5532
2017-08-27T10:11:13.697Z,5560
2017-08-27T10:12:23.967Z,5592
2017-08-27T10:13:34.237Z,5624
2017-08-27T10:14:44.521Z,5656
2017-08-27T10:15:54.150Z,5684
2017-08-27T10:17:04.424Z,5712
2017-08-27T10:18:14.696Z,5744
2017-08-27T10:19:24.646Z,5776
2017-08-27T10:20:34.922Z,5812
2017-08-27T10:21:45.196Z,5844
2017-08-27T10:22:55.147Z,5872
2017-08-27T10:24:05.095Z,5904
2017-08-27T10:25:15.375Z,5944
2017-08-27T10:26:25.326Z,5980
2017-08-27T10:27:35.610Z,6016
2017-08-27T10:28:45.885Z,6060
2017-08-27T10:29:55.840Z,6100
2017-08-27T10:31:06.114Z,6148
2017-08-27T10:32:15.743Z,6188
2017-08-27T10:33:25.373Z,6236
2017-08-27T10:34:35.654Z,6284
2017-08-27T10:35:45.608Z,6328
2017-08-27T10:36:55.880Z,6380
2017-08-27T10:38:06.156Z,6424
2017-08-27T10:39:16.435Z,6472
2017-08-27T10:40:26.388Z,6516
2017-08-27T10:41:36.336Z,6556
2017-08-27T10:42:46.618Z,6596
2017-08-27T10:43:56.249Z,6636
2017-08-27T10:45:06.201Z,6672
2017-08-27T10:46:16.479Z,6696
2017-08-27T10:47:26.434Z,6728
2017-08-27T10:48:36.061Z,6772
2017-08-27T10:49:46.014Z,6820
2017-08-27T10:50:55.972Z,6872
2017-08-27T10:52:06.251Z,6920
2017-08-27T10:53:16.210Z,6964
2017-08-27T10:54:26.166Z,7012
2017-08-27T10:55:36.438Z,7068
2017-08-27T10:56:46.391Z,7112
2017-08-27T10:57:56.671Z,7168
2017-08-27T10:59:06.625Z,7224
2017-08-27T11:00:16.898Z,7280
2017-08-27T11:01:27.177Z,7336
2017-08-27T11:02:37.453Z,7388
2017-08-27T11:03:47.412Z,7440
2017-08-27T11:04:57.704Z,7508
2017-08-27T11:06:07.661Z,7564
2017-08-27T11:07:17.617Z,7608
2017-08-27T11:08:27.251Z,7652
2017-08-27T11:09:37.523Z,7700
2017-08-27T11:10:47.791Z,7740
2017-08-27T11:11:57.757Z,7788
2017-08-27T11:13:08.050Z,7844
2017-08-27T11:14:18.331Z,7932
2017-08-27T11:15:28.285Z,8016
2017-08-27T11:16:38.564Z,8088
2017-08-27T11:17:48.837Z,8272
2017-08-27T11:18:59.112Z,8792
2017-08-27T11:20:09.385Z,12508
2017-08-27T11:21:19.667Z,45184
2017-08-27T11:22:29.944Z,61312
2017-08-27T11:23:40.215Z,62272
2017-08-27T11:24:50.494Z,63840
2017-08-27T11:26:00.445Z,60576
2017-08-27T11:27:10.400Z,62176
2017-08-27T11:28:20.677Z,58912
2017-08-27T11:29:30.631Z,56000
2017-08-27T11:30:40.593Z,55904
2017-08-27T11:31:50.868Z,58336
2017-08-27T11:33:00.827Z,59168
2017-08-27T11:34:10.792Z,60448
2017-08-27T11:35:20.749Z,59616
2017-08-27T11:36:31.028Z,59232
2017-08-27T11:37:40.986Z,61952
2017-08-27T11:38:50.951Z,61056
2017-08-27T11:40:01.236Z,61536
2017-08-27T11:41:11.531Z,62528
2017-08-27T11:42:21.810Z,64256
2017-08-27T11:43:31.769Z,64480
2017-08-27T11:44:42.053Z,65056
2017-08-27T11:45:52.333Z,66880
2017-08-27T11:47:02.296Z,68832
2017-08-27T11:48:12.579Z,68672
2017-08-27T11:49:21.898Z,70208
2017-08-27T11:50:32.181Z,69280
2017-08-27T11:51:42.157Z,67424
2017-08-27T11:52:52.121Z,66112
2017-08-27T11:54:02.405Z,66944
2017-08-27T11:55:12.697Z,65536
2017-08-27T11:56:22.985Z,63296
2017-08-27T11:57:32.949Z,63680
2017-08-27T11:58:43.236Z,64160
2017-08-27T11:59:53.199Z,60992
2017-08-27T12:01:03.483Z,59392
2017-08-27T12:02:13.128Z,62720
2017-08-27T12:03:23.090Z,62144
2017-08-27T12:04:33.054Z,61472
2017-08-27T12:05:43.018Z,62560
2017-08-27T12:06:53.303Z,59136
2017-08-27T12:08:03.267Z,62272
2017-08-27T12:09:13.233Z,60992
2017-08-27T12:10:23.519Z,63872
2017-08-27T12:11:33.823Z,64608
2017-08-27T12:12:43.464Z,62976
2017-08-27T12:13:53.750Z,63488
2017-08-27T12:15:03.402Z,62816
2017-08-27T12:16:13.470Z,63456
2017-08-27T12:17:23.436Z,62784
2017-08-27T12:18:33.406Z,64192
2017-08-27T12:19:43.691Z,63808
2017-08-27T12:20:53.979Z,61920
2017-08-27T12:22:04.268Z,59520
2017-08-27T12:23:14.556Z,61056
2017-08-27T12:24:24.843Z,64512
2017-08-27T12:25:35.132Z,62976
2017-08-27T12:26:45.104Z,61696
2017-08-27T12:27:55.398Z,60096
2017-08-27T12:29:05.367Z,54496
2017-08-27T12:30:15.654Z,60832
2017-08-27T12:31:25.949Z,62016
2017-08-27T12:32:35.914Z,62688
2017-08-27T12:33:46.206Z,62368
2017-08-27T12:34:55.864Z,60448
2017-08-27T12:36:05.507Z,57920
2017-08-27T12:37:15.814Z,60512
2017-08-27T12:38:25.458Z,59040
2017-08-27T12:39:35.431Z,55168
2017-08-27T12:40:45.402Z,53440
2017-08-27T12:41:55.693Z,56256
2017-08-27T12:43:05.344Z,60352
2017-08-27T12:44:15.656Z,61184
2017-08-27T12:45:25.636Z,60512
2017-08-27T12:46:35.604Z,60224
2017-08-27T12:47:45.893Z,59680
2017-08-27T12:48:56.188Z,60608
2017-08-27T12:50:06.156Z,61984
2017-08-27T12:51:16.124Z,64512
2017-08-27T12:52:26.421Z,64672
2017-08-27T12:53:36.710Z,64832
2017-08-27T12:54:46.998Z,62752
2017-08-27T12:55:57.290Z,65952
2017-08-27T12:57:07.258Z,66848
2017-08-27T12:58:17.563Z,69536
2017-08-27T12:59:27.851Z,67296
2017-08-27T13:00:37.831Z,66720
2017-08-27T13:01:48.120Z,65536
2017-08-27T13:02:58.087Z,69280
2017-08-27T13:04:08.377Z,73408
2017-08-27T13:05:18.344Z,74464
2017-08-27T13:06:28.634Z,74624
2017-08-27T13:07:38.603Z,69280
2017-08-27T13:08:48.568Z,61088
2017-08-27T13:09:58.862Z,64224
2017-08-27T13:11:09.156Z,60672
2017-08-27T13:12:18.802Z,61952
2017-08-27T13:13:29.089Z,62240
2017-08-27T13:14:38.991Z,61984
2017-08-27T13:15:48.957Z,65824
2017-08-27T13:16:59.258Z,68864
2017-08-27T13:18:09.553Z,68640
2017-08-27T13:19:19.211Z,67008
2017-08-27T13:20:28.857Z,66400
2017-08-27T13:21:38.827Z,65088
2017-08-27T13:22:48.802Z,63904
2017-08-27T13:23:59.123Z,66848
2017-08-27T13:25:09.413Z,69376
2017-08-27T13:26:19.701Z,70400
2017-08-27T13:27:29.672Z,71680
2017-08-27T13:28:39.958Z,71872
2017-08-27T13:29:50.247Z,68480
2017-08-27T13:31:00.221Z,64480
2017-08-27T13:32:10.511Z,62496
2017-08-27T13:33:20.483Z,62208
2017-08-27T13:34:30.782Z,61088
2017-08-27T13:35:41.069Z,61216
2017-08-27T13:36:51.366Z,56000
2017-08-27T13:38:01.367Z,54816
2017-08-27T13:39:11.656Z,55360
2017-08-27T13:40:21.947Z,54944
2017-08-27T13:41:31.917Z,54208
2017-08-27T13:42:41.892Z,51680
2017-08-27T13:43:51.858Z,48640
2017-08-27T13:45:02.150Z,51264
2017-08-27T13:46:12.121Z,52256
2017-08-27T13:47:22.094Z,48000
2017-08-27T13:48:32.393Z,45376
2017-08-27T13:49:42.988Z,46720
2017-08-27T13:50:53.284Z,48224
2017-08-27T13:52:03.572Z,48960
2017-08-27T13:53:13.867Z,51712
2017-08-27T13:54:24.159Z,53440
2017-08-27T13:55:34.446Z,53728
2017-08-27T13:56:44.100Z,55200
2017-08-27T13:57:54.390Z,56384
2017-08-27T13:59:04.357Z,61248
2017-08-27T14:00:14.333Z,57952
2017-08-27T14:01:24.647Z,61984
2017-08-27T14:02:34.934Z,67200
2017-08-27T14:03:45.230Z,69664
2017-08-27T14:04:55.518Z,68800
2017-08-27T14:06:05.486Z,66304
2017-08-27T14:07:14.813Z,65376
2017-08-27T14:08:24.781Z,64960
2017-08-27T14:09:34.426Z,65952
2017-08-27T14:10:44.718Z,67648
2017-08-27T14:11:55.010Z,68128
2017-08-27T14:13:05.305Z,71296
2017-08-27T14:14:15.598Z,70912
2017-08-27T14:15:25.564Z,72480
2017-08-27T14:16:35.858Z,72544
2017-08-27T14:17:46.147Z,70080
2017-08-27T14:18:56.112Z,67072
2017-08-27T14:20:06.402Z,67200
2017-08-27T14:21:16.701Z,67936
2017-08-27T14:22:26.685Z,64800
2017-08-27T14:23:36.973Z,65056
2017-08-27T14:24:47.263Z,65024
2017-08-27T14:25:57.237Z,65280
2017-08-27T14:27:07.530Z,62528
2017-08-27T14:28:17.826Z,62112
2017-08-27T14:29:27.472Z,63648
2017-08-27T14:30:37.441Z,63456
2017-08-27T14:31:47.734Z,63296
2017-08-27T14:32:58.030Z,64128
2017-08-27T14:34:07.675Z,63008
2017-08-27T14:35:17.980Z,60544
2017-08-27T14:36:28.277Z,61152
2017-08-27T14:37:37.923Z,54240
2017-08-27T14:38:47.892Z,56160
2017-08-27T14:39:58.212Z,60864
2017-08-27T14:41:08.512Z,61440
2017-08-27T14:42:18.804Z,62144
2017-08-27T14:43:28.770Z,63136
2017-08-27T14:44:38.095Z,62752
2017-08-27T14:45:48.387Z,61952
2017-08-27T14:46:58.356Z,61120
2017-08-27T14:48:08.650Z,60544
2017-08-27T14:49:18.952Z,59968
2017-08-27T14:50:29.242Z,60000
2017-08-27T14:51:38.896Z,60096
2017-08-27T14:52:48.865Z,60192
2017-08-27T14:53:59.167Z,61728
2017-08-27T14:55:09.141Z,60800
2017-08-27T14:56:19.436Z,59648
2017-08-27T14:57:29.407Z,59840
2017-08-27T14:58:39.695Z,60320
2017-08-27T14:59:49.660Z,58464
2017-08-27T15:00:59.960Z,58304
2017-08-27T15:02:09.939Z,57120
2017-08-27T15:03:20.246Z,58112
2017-08-27T15:04:30.537Z,58496
2017-08-27T15:05:40.510Z,56032
2017-08-27T15:06:50.800Z,55936
2017-08-27T15:08:00.768Z,52928
2017-08-27T15:09:10.738Z,52704
2017-08-27T15:10:21.031Z,54560
2017-08-27T15:11:30.685Z,54880
2017-08-27T15:12:40.975Z,54496
2017-08-27T15:13:51.266Z,53408
2017-08-27T15:15:01.553Z,52448
2017-08-27T15:16:11.853Z,51904
2017-08-27T15:17:21.821Z,50016
2017-08-27T15:18:31.787Z,49952
2017-08-27T15:19:41.449Z,50912
2017-08-27T15:20:51.740Z,48768
2017-08-27T15:22:01.715Z,49920
2017-08-27T15:23:11.690Z,51648
2017-08-27T15:24:21.336Z,51808
2017-08-27T15:25:31.624Z,51520
2017-08-27T15:26:41.912Z,44672
2017-08-27T15:27:52.197Z,24896
2017-08-27T15:29:02.493Z,19008
2017-08-27T15:30:12.459Z,14380
2017-08-27T15:31:22.426Z,12156
2017-08-27T15:32:32.716Z,13520
2017-08-27T15:33:42.360Z,9324
2017-08-27T15:34:52.328Z,9940
2017-08-27T15:36:02.623Z,9216
2017-08-27T15:37:12.594Z,9964
2017-08-27T15:38:22.567Z,10064
2017-08-27T15:39:32.867Z,8928
2017-08-27T15:40:43.155Z,8320
2017-08-27T15:41:53.121Z,8116
2017-08-27T15:43:03.086Z,8000
2017-08-27T15:44:13.062Z,7892
2017-08-27T15:45:23.350Z,7808
2017-08-27T15:46:33.634Z,7736
2017-08-27T15:47:43.595Z,7876